Time;durP1;ratioP1;P1;durP2;ratioP2;P2;SDS_P1;SDS_P2;PMS_P1;PMS_P2;Temp;Humidity;BMP_temperature;BMP_pressure;BME280_temperature;BME280_humidity;BME280_pressure;Samples;Min_cycle;Max_cycle;Signal;HPM_P1;HPM_P2
2023/08/22 00:01:12;;;;;;;12.48;10.45;;;19.90;99.90;;;;;;5013110;28;20132;-88
2023/08/22 00:03:37;;;;;;;14.88;11.50;;;18.60;99.90;;;;;;5012672;28;20416;-89
2023/08/22 00:06:03;;;;;;;12.50;10.43;;;20.00;99.90;;;;;;5011874;28;20046;-88
2023/08/22 00:08:29;;;;;;;15.98;11.93;;;19.40;99.90;;;;;;5038910;28;20047;-88
2023/08/22 00:10:55;;;;;;;13.20;10.35;;;20.20;99.90;;;;;;5035945;28;20045;-89
2023/08/22 00:13:21;;;;;;;13.02;10.55;;;20.20;99.90;;;;;;5035681;28;20033;-88
2023/08/22 00:15:46;;;;;;;12.50;10.85;;;20.40;99.90;;;;;;5039489;28;20037;-88
2023/08/22 00:18:12;;;;;;;11.38;10.27;;;20.30;99.90;;;;;;5038011;28;20566;-89
2023/08/22 00:20:38;;;;;;;11.48;9.57;;;20.30;99.90;;;;;;5036439;28;20041;-87
2023/08/22 00:23:04;;;;;;;10.55;9.15;;;20.10;99.90;;;;;;5021147;28;20039;-88
2023/08/22 00:25:30;;;;;;;10.77;9.30;;;20.00;99.90;;;;;;5009338;28;20029;-88
2023/08/22 00:27:55;;;;;;;13.38;9.93;;;20.10;99.90;;;;;;5006829;28;20029;-87
2023/08/22 00:30:21;;;;;;;10.40;9.30;;;20.00;99.90;;;;;;5044799;28;20151;-87
2023/08/22 00:32:47;;;;;;;12.55;10.13;;;20.00;99.90;;;;;;5028465;28;20036;-87
2023/08/22 00:35:13;;;;;;;14.73;10.40;;;20.10;99.90;;;;;;5027320;28;20048;-87
2023/08/22 00:37:39;;;;;;;14.68;10.20;;;20.20;99.90;;;;;;5030271;28;20331;-88
2023/08/22 00:40:05;;;;;;;12.43;10.35;;;20.20;99.90;;;;;;5013393;28;20039;-89
2023/08/22 00:42:31;;;;;;;12.68;10.48;;;20.00;99.90;;;;;;5045539;28;20036;-88
2023/08/22 00:44:57;;;;;;;11.05;9.68;;;19.90;99.90;;;;;;5017020;28;20039;-87
2023/08/22 00:47:23;;;;;;;12.18;10.55;;;19.80;99.90;;;;;;5010238;28;20055;-87
2023/08/22 00:49:49;;;;;;;15.57;10.80;;;19.80;99.90;;;;;;5016049;28;20036;-88
2023/08/22 00:52:15;;;;;;;14.35;10.98;;;19.80;99.90;;;;;;5030730;28;20166;-86
2023/08/22 00:54:41;;;;;;;12.10;10.07;;;19.80;99.90;;;;;;4993333;28;20101;-87
2023/08/22 00:57:07;;;;;;;14.60;9.77;;;19.80;99.90;;;;;;5010147;28;20045;-88
2023/08/22 00:59:33;;;;;;;17.02;12.13;;;19.80;99.90;;;;;;5009745;28;20055;-87
2023/08/22 01:02:00;;;;;;;16.25;12.00;;;19.90;99.90;;;;;;5030273;28;20182;-88
2023/08/22 01:04:25;;;;;;;15.30;12.45;;;20.00;99.90;;;;;;5033698;28;20044;-86
2023/08/22 01:07:22;;;;;;;15.52;12.07;;;20.10;99.90;;;;;;5002895;28;20049;-88
2023/08/22 01:10:04;;;;;;;13.13;11.55;;;20.00;99.90;;;;;;5033196;28;20383;-87
2023/08/22 01:12:38;;;;;;;12.68;10.57;;;20.20;99.90;;;;;;5037329;28;20048;-88
2023/08/22 01:15:11;;;;;;;9.00;8.20;;;20.10;99.90;;;;;;5018104;28;20048;-88
2023/08/22 01:17:38;;;;;;;8.68;7.78;;;19.70;99.90;;;;;;5033580;28;20048;-89
2023/08/22 01:20:07;;;;;;;13.93;9.10;;;19.50;99.90;;;;;;5041828;28;20486;-86
2023/08/22 01:22:33;;;;;;;10.30;8.95;;;19.50;99.90;;;;;;5034900;28;20040;-88
2023/08/22 01:24:59;;;;;;;10.73;9.00;;;19.40;99.90;;;;;;5050369;28;20047;-88
2023/08/22 01:27:31;;;;;;;10.80;8.80;;;19.40;99.90;;;;;;5034949;28;20029;-88
2023/08/22 01:30:10;;;;;;;9.27;8.27;;;19.40;99.90;;;;;;5049580;28;20040;-88
2023/08/22 01:32:40;;;;;;;11.23;8.98;;;19.30;99.90;;;;;;5064867;28;20044;-89
2023/08/22 01:35:11;;;;;;;11.63;9.85;;;19.10;99.90;;;;;;5050160;28;20051;-89
2023/08/22 01:37:39;;;;;;;11.27;9.77;;;19.20;99.90;;;;;;5053439;28;20549;-90
2023/08/22 01:40:08;;;;;;;13.50;11.10;;;19.60;99.90;;;;;;5030253;28;20036;-88
2023/08/22 01:42:34;;;;;;;12.43;10.88;;;19.30;99.90;;;;;;5050556;28;20036;-87
2023/08/22 01:44:59;;;;;;;12.00;9.70;;;17.40;99.90;;;;;;5034980;28;20128;-87
2023/08/22 01:47:25;;;;;;;12.50;10.30;;;19.40;99.90;;;;;;5017077;28;20138;-88
2023/08/22 01:49:51;;;;;;;15.80;11.55;;;19.60;99.90;;;;;;5035603;28;20607;-88
2023/08/22 01:52:16;;;;;;;15.02;13.05;;;19.70;99.90;;;;;;5033540;28;20041;-90
2023/08/22 01:54:43;;;;;;;15.45;12.57;;;19.80;99.90;;;;;;5033554;28;20037;-87
2023/08/22 01:57:09;;;;;;;16.50;12.43;;;19.90;99.90;;;;;;5047978;28;20032;-88
2023/08/22 01:59:35;;;;;;;21.00;13.80;;;20.00;99.90;;;;;;5043681;28;20219;-87
2023/08/22 02:02:01;;;;;;;18.38;13.77;;;20.10;99.90;;;;;;5037926;28;20040;-89
2023/08/22 02:04:27;;;;;;;14.13;12.43;;;20.00;99.90;;;;;;5034365;28;20029;-87
2023/08/22 02:06:52;;;;;;;14.65;12.93;;;20.00;99.90;;;;;;5050064;28;20076;-88
2023/08/22 02:09:18;;;;;;;21.23;14.77;;;20.10;99.90;;;;;;5025408;28;20173;-89
2023/08/22 02:11:50;;;;;;;17.42;13.98;;;19.90;99.90;;;;;;5035001;28;20036;-89
2023/08/22 02:14:15;;;;;;;16.02;11.80;;;20.10;99.90;;;;;;5063711;28;20113;-87
2023/08/22 02:16:41;;;;;;;16.75;12.15;;;20.10;99.90;;;;;;5029120;28;20041;-89
2023/08/22 02:19:07;;;;;;;17.73;15.35;;;20.00;99.90;;;;;;5047507;28;20049;-88
2023/08/22 02:21:34;;;;;;;18.05;13.45;;;20.00;99.90;;;;;;5017894;28;20463;-88
2023/08/22 02:24:05;;;;;;;18.55;14.00;;;20.00;99.90;;;;;;5005803;28;20045;-88
2023/08/22 02:26:33;;;;;;;15.50;12.45;;;20.00;99.90;;;;;;5034302;28;20037;-88
2023/08/22 02:29:00;;;;;;;12.27;10.55;;;19.80;99.90;;;;;;5007283;28;20193;-87
2023/08/22 02:31:26;;;;;;;10.48;7.75;;;19.70;99.90;;;;;;5012032;28;20045;-90
2023/08/22 02:33:51;;;;;;;8.90;5.82;;;19.20;99.90;;;;;;5014368;28;20037;-89
2023/08/22 02:36:17;;;;;;;7.85;7.07;;;18.90;99.90;;;;;;5024278;28;20050;-90
2023/08/22 02:38:43;;;;;;;7.63;6.65;;;18.80;99.90;;;;;;5053587;28;20120;-89
2023/08/22 02:41:08;;;;;;;6.65;5.65;;;18.60;99.90;;;;;;5053460;28;20404;-88
2023/08/22 02:43:35;;;;;;;5.65;5.15;;;18.40;99.90;;;;;;5033942;28;20405;-88
2023/08/22 02:46:01;;;;;;;5.45;3.92;;;18.30;99.90;;;;;;5034261;28;20047;-88
2023/08/22 02:48:27;;;;;;;7.18;4.05;;;18.00;99.90;;;;;;5026632;28;20385;-88
2023/08/22 02:50:53;;;;;;;5.18;4.68;;;18.00;99.90;;;;;;5037726;28;20388;-89
2023/08/22 02:53:19;;;;;;;7.30;6.00;;;18.00;99.90;;;;;;5034299;28;20072;-88
2023/08/22 02:55:48;;;;;;;7.15;6.07;;;18.10;99.90;;;;;;5028934;28;20037;-87
2023/08/22 02:58:14;;;;;;;8.27;6.25;;;18.20;99.90;;;;;;5048414;28;20041;-88
2023/08/22 03:00:40;;;;;;;11.07;7.90;;;18.30;99.90;;;;;;5056974;28;20124;-88
2023/08/22 03:03:06;;;;;;;11.75;9.48;;;18.30;99.90;;;;;;5040656;28;20634;-88
2023/08/22 03:05:31;;;;;;;10.73;8.52;;;18.60;99.90;;;;;;5049454;28;20131;-88
2023/08/22 03:07:57;;;;;;;9.18;8.18;;;18.60;99.90;;;;;;5035297;28;20123;-88
2023/08/22 03:10:23;;;;;;;18.77;11.60;;;18.70;99.90;;;;;;5035697;28;20051;-88
2023/08/22 03:12:50;;;;;;;16.98;11.27;;;18.90;99.90;;;;;;5035330;28;20450;-88
2023/08/22 03:15:16;;;;;;;16.23;11.75;;;18.90;99.90;;;;;;5037827;28;20029;-86
2023/08/22 03:17:41;;;;;;;15.55;11.02;;;18.90;99.90;;;;;;5046806;28;20551;-86
2023/08/22 03:20:09;;;;;;;17.02;11.43;;;19.00;99.90;;;;;;5025077;28;20049;-87
2023/08/22 03:22:34;;;;;;;12.75;10.77;;;19.00;99.90;;;;;;5019356;28;20512;-88
2023/08/22 03:25:00;;;;;;;16.00;12.40;;;18.80;99.90;;;;;;5019676;28;20033;-87
2023/08/22 03:27:26;;;;;;;13.32;10.70;;;18.90;99.90;;;;;;5035248;28;20042;-88
2023/08/22 03:29:52;;;;;;;14.20;11.55;;;18.90;99.90;;;;;;5041295;28;20405;-87
2023/08/22 03:32:17;;;;;;;15.73;11.32;;;19.00;99.90;;;;;;5016761;28;20040;-87
2023/08/22 03:34:43;;;;;;;15.27;10.65;;;19.00;99.90;;;;;;5036309;28;20040;-87
2023/08/22 03:37:09;;;;;;;13.82;10.32;;;19.00;99.90;;;;;;5034983;28;20029;-88
2023/08/22 03:39:35;;;;;;;11.23;10.00;;;18.90;99.90;;;;;;5007577;28;20075;-88
2023/08/22 03:42:00;;;;;;;16.20;9.88;;;18.90;99.90;;;;;;5000029;28;20503;-86
2023/08/22 03:44:26;;;;;;;13.60;9.75;;;18.90;99.90;;;;;;5006143;28;20675;-88
2023/08/22 03:46:52;;;;;;;11.93;8.80;;;18.90;99.90;;;;;;5024081;28;20046;-88
2023/08/22 03:49:18;;;;;;;8.65;4.63;;;18.80;99.90;;;;;;5010611;28;20093;-88
2023/08/22 03:51:43;;;;;;;4.45;3.92;;;18.30;99.90;;;;;;5019764;28;20041;-87
2023/08/22 03:54:09;;;;;;;5.68;5.05;;;18.00;99.90;;;;;;5024436;28;20033;-88
2023/08/22 03:56:34;;;;;;;5.95;5.15;;;18.00;99.90;;;;;;5039797;28;20032;-88
2023/08/22 03:59:00;;;;;;;7.10;5.63;;;18.00;99.90;;;;;;5040061;28;20476;-88
2023/08/22 04:01:26;;;;;;;7.57;6.00;;;18.10;99.90;;;;;;5014270;28;20066;-87
2023/08/22 04:03:51;;;;;;;6.55;5.93;;;18.10;99.90;;;;;;4989406;28;20040;-88
2023/08/22 04:06:17;;;;;;;7.82;6.28;;;18.10;99.90;;;;;;5018947;28;20412;-87
2023/08/22 04:08:43;;;;;;;8.25;7.10;;;18.20;99.90;;;;;;5045034;28;20101;-88
2023/08/22 04:11:09;;;;;;;5.75;4.82;;;18.30;99.90;;;;;;5002267;28;20567;-87
2023/08/22 04:13:34;;;;;;;3.83;3.45;;;18.10;99.90;;;;;;5010932;28;20055;-87
2023/08/22 04:16:00;;;;;;;4.32;2.80;;;18.00;99.90;;;;;;4999750;28;20036;-88
2023/08/22 04:18:25;;;;;;;4.63;2.80;;;18.00;99.90;;;;;;5053534;28;20040;-87
2023/08/22 04:20:51;;;;;;;3.78;3.17;;;17.70;99.90;;;;;;5053440;28;20489;-87
2023/08/22 04:23:17;;;;;;;4.47;2.83;;;17.70;99.90;;;;;;5055268;28;20504;-88
2023/08/22 04:25:43;;;;;;;4.55;2.95;;;17.50;99.90;;;;;;5035583;28;20041;-88
2023/08/22 04:28:08;;;;;;;3.78;3.00;;;17.40;99.90;;;;;;5006360;28;20120;-88
2023/08/22 04:30:34;;;;;;;3.70;3.13;;;17.40;99.90;;;;;;5038171;28;20679;-89
2023/08/22 04:33:00;;;;;;;3.30;3.00;;;17.40;99.90;;;;;;5019333;28;20040;-88
2023/08/22 04:35:25;;;;;;;4.85;3.78;;;17.40;99.90;;;;;;5045366;28;20036;-89
2023/08/22 04:37:51;;;;;;;5.07;3.97;;;17.50;99.90;;;;;;5019157;28;20071;-89
2023/08/22 04:40:17;;;;;;;8.25;5.90;;;17.60;99.90;;;;;;5030729;28;20147;-88
2023/08/22 04:42:43;;;;;;;6.95;5.50;;;17.60;99.90;;;;;;5039366;28;20040;-89
2023/08/22 04:45:09;;;;;;;6.88;6.18;;;17.60;99.90;;;;;;5054934;28;20036;-88
2023/08/22 04:47:34;;;;;;;8.07;6.03;;;17.70;99.90;;;;;;5022192;28;20037;-89
2023/08/22 04:50:00;;;;;;;9.50;6.68;;;17.70;99.90;;;;;;5054599;28;20445;-89
2023/08/22 04:52:27;;;;;;;9.10;6.80;;;17.80;99.90;;;;;;5053721;28;20416;-89
2023/08/22 04:54:55;;;;;;;9.43;7.88;;;17.90;99.90;;;;;;5038681;28;20039;-88
2023/08/22 04:57:23;;;;;;;9.13;7.95;;;17.80;99.90;;;;;;5055251;28;20037;-88
2023/08/22 04:59:49;;;;;;;11.55;8.88;;;18.00;99.90;;;;;;5020209;28;20033;-89
2023/08/22 05:02:15;;;;;;;12.43;8.48;;;18.00;99.90;;;;;;5069300;28;20090;-89
2023/08/22 05:04:41;;;;;;;11.90;8.45;;;18.00;99.90;;;;;;5035519;28;20087;-88
2023/08/22 05:07:06;;;;;;;10.73;8.48;;;18.10;99.90;;;;;;5046665;28;20090;-87
2023/08/22 05:09:32;;;;;;;11.60;9.48;;;18.10;99.90;;;;;;5006451;28;20093;-88
2023/08/22 05:11:58;;;;;;;14.55;9.32;;;18.10;99.90;;;;;;5036240;28;20133;-89
2023/08/22 05:14:24;;;;;;;12.55;9.73;;;18.30;99.90;;;;;;5038311;28;20142;-88
2023/08/22 05:16:51;;;;;;;13.13;9.75;;;18.20;99.90;;;;;;5034517;28;20421;-88
2023/08/22 05:19:17;;;;;;;14.40;10.57;;;18.20;99.90;;;;;;5032146;28;20131;-86
2023/08/22 05:21:49;;;;;;;13.43;10.27;;;18.40;99.90;;;;;;5032860;28;20040;-88
2023/08/22 05:24:14;;;;;;;18.23;11.60;;;18.60;99.90;;;;;;5015627;28;20093;-88
2023/08/22 05:26:40;;;;;;;15.10;10.45;;;18.60;99.90;;;;;;5027725;28;20695;-89
2023/08/22 05:29:06;;;;;;;14.27;11.95;;;18.70;99.90;;;;;;5018168;28;20036;-88
2023/08/22 05:31:32;;;;;;;16.00;11.32;;;18.80;99.90;;;;;;5016008;28;20045;-87
2023/08/22 05:33:58;;;;;;;18.75;12.00;;;20.10;99.90;;;;;;5054614;28;20047;-90
2023/08/22 05:36:24;;;;;;;19.13;12.68;;;19.00;99.90;;;;;;5034064;28;20029;-88
2023/08/22 05:38:50;;;;;;;17.55;12.98;;;19.10;99.90;;;;;;5019351;28;20047;-89
2023/08/22 05:41:16;;;;;;;15.18;10.95;;;19.10;99.90;;;;;;5036430;28;20075;-89
2023/08/22 05:43:42;;;;;;;18.63;12.02;;;19.10;99.90;;;;;;5037415;28;20535;-89
2023/08/22 05:46:08;;;;;;;15.57;11.68;;;19.20;99.90;;;;;;5037980;28;20045;-88
2023/08/22 05:48:35;;;;;;;15.25;12.27;;;19.10;99.90;;;;;;5037287;28;20048;-88
2023/08/22 05:51:02;;;;;;;15.75;11.70;;;19.10;99.90;;;;;;5015314;28;20083;-90
2023/08/22 05:53:28;;;;;;;15.15;11.60;;;19.10;99.90;;;;;;5027921;28;20041;-91
2023/08/22 05:55:55;;;;;;;15.23;11.85;;;19.30;99.90;;;;;;5020846;28;20607;-90
2023/08/22 05:58:21;;;;;;;16.20;11.45;;;19.20;99.90;;;;;;5020757;28;20036;-88
2023/08/22 06:00:47;;;;;;;13.85;11.35;;;19.50;99.90;;;;;;5005546;28;20079;-88
2023/08/22 06:03:13;;;;;;;14.93;10.73;;;19.50;99.90;;;;;;5039334;28;20041;-90
2023/08/22 06:05:40;;;;;;;14.30;9.77;;;19.60;99.90;;;;;;5053964;28;20036;-88
2023/08/22 06:08:07;;;;;;;14.40;10.43;;;19.60;99.90;;;;;;5034953;28;20085;-90
2023/08/22 06:10:32;;;;;;;15.45;10.13;;;19.50;99.90;;;;;;5019758;28;20039;-88
2023/08/22 06:12:59;;;;;;;13.48;10.13;;;19.70;99.90;;;;;;5026101;28;20036;-89
2023/08/22 06:15:25;;;;;;;15.48;9.90;;;19.60;99.90;;;;;;5035491;28;20163;-90
2023/08/22 06:17:51;;;;;;;13.10;9.88;;;19.70;99.90;;;;;;5033231;28;20072;-89
2023/08/22 06:20:17;;;;;;;11.23;9.23;;;19.90;99.90;;;;;;5018334;28;20458;-88
2023/08/22 06:22:43;;;;;;;11.63;9.07;;;20.00;99.90;;;;;;5033998;28;20051;-88
2023/08/22 06:25:08;;;;;;;12.90;9.40;;;20.00;99.90;;;;;;5033825;28;20656;-89
2023/08/22 06:27:34;;;;;;;12.50;8.63;;;19.80;99.90;;;;;;5011229;28;20041;-88
2023/08/22 06:30:04;;;;;;;13.27;8.30;;;20.20;99.90;;;;;;5038099;28;20054;-89
2023/08/22 06:32:30;;;;;;;10.50;7.60;;;20.30;99.90;;;;;;5010538;28;20120;-88
2023/08/22 06:35:01;;;;;;;12.15;7.88;;;20.20;99.90;;;;;;5038785;28;20115;-91
2023/08/22 06:37:27;;;;;;;11.48;7.90;;;20.40;99.90;;;;;;5034353;28;20061;-89
2023/08/22 06:39:53;;;;;;;12.68;8.38;;;20.40;99.90;;;;;;5021711;28;20048;-88
2023/08/22 06:42:19;;;;;;;9.50;7.75;;;20.30;99.90;;;;;;5014957;28;20045;-87
2023/08/22 06:44:44;;;;;;;13.63;7.78;;;20.50;99.90;;;;;;5016603;28;20045;-88
2023/08/22 06:47:10;;;;;;;10.95;7.60;;;20.60;99.90;;;;;;5003492;28;20114;-87
2023/08/22 06:49:36;;;;;;;11.65;7.97;;;20.60;99.90;;;;;;5015148;28;20057;-88
2023/08/22 06:52:01;;;;;;;9.77;7.03;;;20.90;99.90;;;;;;5023584;28;20074;-87
2023/08/22 06:54:27;;;;;;;11.35;7.43;;;20.90;99.90;;;;;;5024454;28;20064;-88
2023/08/22 06:56:53;;;;;;;10.43;7.75;;;21.10;99.90;;;;;;5032118;28;20033;-87
2023/08/22 06:59:18;;;;;;;9.40;6.65;;;21.10;99.90;;;;;;5006340;28;20036;-88
2023/08/22 07:01:44;;;;;;;10.80;6.80;;;21.10;99.90;;;;;;4999547;28;20037;-88
2023/08/22 07:04:10;;;;;;;10.35;6.57;;;21.30;99.90;;;;;;5000290;28;20233;-88
2023/08/22 07:06:36;;;;;;;10.70;6.70;;;21.20;99.90;;;;;;5010663;28;20566;-87
2023/08/22 07:09:03;;;;;;;8.75;6.75;;;21.30;99.90;;;;;;5031539;28;20428;-89
2023/08/22 07:11:29;;;;;;;7.95;5.90;;;21.40;99.90;;;;;;5000531;28;20040;-89
2023/08/22 07:13:54;;;;;;;8.75;6.15;;;21.60;99.90;;;;;;5019313;28;20044;-88
2023/08/22 07:16:20;;;;;;;10.75;6.50;;;21.50;99.90;;;;;;5018141;28;20028;-89
2023/08/22 07:18:46;;;;;;;11.60;6.32;;;21.70;99.90;;;;;;5010361;28;20041;-88
2023/08/22 07:21:11;;;;;;;7.80;5.07;;;21.70;99.90;;;;;;5008301;28;20056;-88
2023/08/22 07:23:37;;;;;;;7.28;4.72;;;21.90;99.90;;;;;;5011478;28;20056;-88
2023/08/22 07:26:04;;;;;;;7.63;4.68;;;22.00;99.90;;;;;;5040435;28;20092;-89
2023/08/22 07:28:33;;;;;;;10.13;5.55;;;22.10;99.90;;;;;;5031001;28;20477;-88
2023/08/22 07:31:00;;;;;;;6.63;4.50;;;22.10;99.90;;;;;;5066956;28;20124;-88
2023/08/22 07:33:25;;;;;;;7.65;4.88;;;22.20;99.90;;;;;;5023709;28;20032;-88
2023/08/22 07:35:52;;;;;;;6.38;4.90;;;22.40;99.90;;;;;;5073162;28;20097;-88
2023/08/22 07:38:18;;;;;;;10.07;4.60;;;22.40;99.90;;;;;;5053066;28;20079;-88
2023/08/22 07:40:44;;;;;;;8.30;5.05;;;22.50;99.90;;;;;;5052138;28;20029;-87
2023/08/22 07:43:09;;;;;;;8.48;4.65;;;22.30;99.90;;;;;;5036984;28;20041;-89
2023/08/22 07:45:37;;;;;;;8.45;4.57;;;22.30;99.90;;;;;;5051624;28;20040;-90
2023/08/22 07:48:03;;;;;;;7.00;4.18;;;22.20;99.90;;;;;;5048191;28;20040;-89
2023/08/22 07:50:29;;;;;;;6.15;4.40;;;22.50;99.90;;;;;;5019490;28;20147;-90
2023/08/22 07:52:56;;;;;;;6.65;4.40;;;22.40;99.90;;;;;;5044113;28;20481;-88
2023/08/22 07:55:27;;;;;;;6.55;4.20;;;22.60;99.90;;;;;;5038884;28;20131;-90
2023/08/22 07:57:54;;;;;;;6.47;4.47;;;22.70;99.90;;;;;;5020504;28;20033;-89
2023/08/22 08:00:20;;;;;;;8.43;4.35;;;22.90;99.90;;;;;;5036622;28;20041;-90
2023/08/22 08:02:46;;;;;;;7.88;4.75;;;22.90;99.90;;;;;;5025426;28;20040;-89
2023/08/22 08:05:12;;;;;;;6.60;4.78;;;23.20;99.90;;;;;;5050552;28;20040;-90
2023/08/22 08:07:39;;;;;;;6.80;4.20;;;23.10;99.90;;;;;;5040571;28;20047;-90
2023/08/22 08:10:06;;;;;;;5.82;4.40;;;23.00;99.90;;;;;;5043025;28;20143;-90
2023/08/22 08:12:32;;;;;;;6.32;3.90;;;23.20;99.90;;;;;;5013410;28;20037;-90
2023/08/22 08:14:58;;;;;;;6.28;3.70;;;23.20;99.90;;;;;;5008509;28;20036;-89
2023/08/22 08:17:25;;;;;;;5.05;3.78;;;23.10;99.90;;;;;;5011319;28;20115;-88
2023/08/22 08:19:51;;;;;;;5.82;3.55;;;23.20;99.90;;;;;;5025959;28;20583;-90
2023/08/22 08:22:17;;;;;;;6.15;3.63;;;23.20;99.90;;;;;;5044604;28;20132;-89
2023/08/22 08:24:43;;;;;;;7.57;3.85;;;23.20;99.90;;;;;;5006328;28;20123;-89
2023/08/22 08:27:09;;;;;;;6.15;4.20;;;23.30;99.90;;;;;;5051120;28;20039;-88
2023/08/22 08:29:35;;;;;;;4.68;2.90;;;23.40;99.90;;;;;;5059387;28;20047;-89
2023/08/22 08:32:00;;;;;;;4.95;2.97;;;23.60;99.90;;;;;;5025844;28;20072;-89
2023/08/22 08:34:26;;;;;;;4.80;3.10;;;23.70;99.90;;;;;;5036180;28;20158;-90
2023/08/22 08:36:52;;;;;;;3.63;2.28;;;23.90;99.90;;;;;;5006734;28;20055;-89
2023/08/22 08:39:18;;;;;;;4.40;2.15;;;23.90;99.90;;;;;;5023740;28;20532;-90
2023/08/22 08:42:15;;;;;;;3.55;1.98;;;24.20;99.90;;;;;;5038937;28;20087;-89
2023/08/22 08:44:41;;;;;;;5.47;2.55;;;24.30;99.90;;;;;;5053729;28;20576;-89
2023/08/22 08:47:08;;;;;;;2.92;2.38;;;24.60;99.90;;;;;;5042050;28;20040;-89
2023/08/22 08:49:35;;;;;;;3.30;2.63;;;24.70;99.90;;;;;;5042202;28;20439;-88
2023/08/22 08:52:10;;;;;;;4.90;2.45;;;24.80;99.90;;;;;;5048020;28;20105;-89
2023/08/22 08:54:36;;;;;;;7.20;2.83;;;24.70;99.90;;;;;;5058629;28;20384;-89
2023/08/22 08:57:05;;;;;;;7.30;2.63;;;24.90;99.90;;;;;;5041522;28;20044;-89
2023/08/22 08:59:31;;;;;;;4.68;2.78;;;25.10;99.90;;;;;;5044359;28;20054;-90
2023/08/22 09:01:59;;;;;;;4.03;2.38;;;25.20;99.90;;;;;;5058604;28;20044;-88
2023/08/22 09:04:25;;;;;;;4.10;2.67;;;25.20;99.90;;;;;;5030251;28;20443;-89
2023/08/22 09:06:51;;;;;;;4.07;3.13;;;25.50;99.90;;;;;;5045940;28;20040;-90
2023/08/22 09:09:18;;;;;;;5.32;2.67;;;25.50;99.90;;;;;;5051827;28;20698;-89
2023/08/22 09:11:52;;;;;;;4.40;2.60;;;25.60;99.90;;;;;;5058370;28;20044;-89
2023/08/22 09:14:19;;;;;;;4.35;2.25;;;25.60;99.90;;;;;;5040007;28;20110;-89
2023/08/22 09:16:46;;;;;;;2.83;2.28;;;25.60;99.90;;;;;;5050849;28;20384;-90
2023/08/22 09:19:12;;;;;;;4.53;2.10;;;25.60;99.90;;;;;;5022250;28;20477;-88
2023/08/22 09:21:38;;;;;;;3.28;2.80;;;25.40;99.90;;;;;;5042963;28;20067;-90
2023/08/22 09:24:10;;;;;;;3.67;2.40;;;25.40;99.90;;;;;;5058416;28;20047;-88
2023/08/22 09:26:37;;;;;;;3.25;2.17;;;25.20;99.90;;;;;;5050546;28;20492;-89
2023/08/22 09:29:07;;;;;;;5.50;2.08;;;25.20;99.90;;;;;;5042974;28;20040;-89
2023/08/22 09:31:36;;;;;;;2.75;1.80;;;25.00;99.90;;;;;;5055522;28;20122;-89
2023/08/22 09:34:09;;;;;;;4.13;2.20;;;25.00;99.90;;;;;;5044516;28;20060;-89
2023/08/22 09:36:45;;;;;;;3.85;2.17;;;25.00;99.90;;;;;;5038969;28;20431;-89
2023/08/22 09:39:15;;;;;;;2.92;1.90;;;25.10;99.90;;;;;;5022318;28;20123;-89
2023/08/22 09:41:42;;;;;;;2.90;1.85;;;25.50;99.90;;;;;;5049281;28;20040;-89
2023/08/22 09:44:10;;;;;;;4.57;1.90;;;25.80;99.90;;;;;;5058094;28;20081;-89
2023/08/22 09:46:39;;;;;;;3.22;1.80;;;26.00;99.90;;;;;;5056242;28;20052;-90
2023/08/22 09:49:09;;;;;;;4.25;1.90;;;26.20;99.90;;;;;;5038176;28;20045;-89
2023/08/22 09:51:35;;;;;;;3.28;2.03;;;26.80;99.90;;;;;;5069274;28;20539;-87
2023/08/22 09:54:03;;;;;;;4.40;2.00;;;26.70;99.90;;;;;;5074628;28;20119;-86
2023/08/22 09:56:31;;;;;;;4.53;2.13;;;26.90;99.90;;;;;;5041662;28;20096;-87
2023/08/22 09:59:00;;;;;;;3.50;2.00;;;26.80;99.90;;;;;;5041313;28;20047;-87
2023/08/22 10:01:33;;;;;;;3.30;1.85;;;26.70;99.90;;;;;;5048354;28;20040;-86
2023/08/22 10:04:06;;;;;;;4.70;2.00;;;26.30;99.90;;;;;;5044159;28;20036;-87
2023/08/22 10:06:34;;;;;;;3.42;2.08;;;26.40;99.90;;;;;;5048492;28;20041;-86
2023/08/22 10:09:07;;;;;;;4.00;2.35;;;26.90;99.90;;;;;;5047251;28;20044;-86
2023/08/22 10:11:55;;;;;;;5.00;2.23;;;27.10;99.90;;;;;;5062753;28;20129;-86
2023/08/22 10:14:44;;;;;;;5.15;2.50;;;27.30;99.90;;;;;;5085356;28;20040;-89
2023/08/22 10:17:14;;;;;;;4.38;2.30;;;27.30;99.90;;;;;;5060006;28;20119;-90
2023/08/22 10:19:42;;;;;;;4.30;2.30;;;27.60;99.90;;;;;;5039045;28;20495;-87
2023/08/22 10:22:12;;;;;;;4.78;2.53;;;27.70;99.90;;;;;;5026292;28;20114;-86
2023/08/22 10:24:39;;;;;;;4.18;2.58;;;27.10;99.90;;;;;;5040820;28;20044;-87
2023/08/22 10:27:27;;;;;;;3.97;2.65;;;27.50;99.90;;;;;;5040896;28;20101;-86
2023/08/22 10:30:11;;;;;;;5.38;2.67;;;27.70;99.90;;;;;;5040941;28;20050;-87
2023/08/22 10:32:41;;;;;;;3.35;2.63;;;28.20;99.90;;;;;;5061203;28;20047;-87
2023/08/22 10:35:10;;;;;;;5.90;2.50;;;28.00;99.90;;;;;;5031167;28;20127;-88
2023/08/22 10:37:46;;;;;;;4.13;2.60;;;28.00;99.90;;;;;;5044104;28;20100;-88
2023/08/22 10:40:20;;;;;;;2.67;2.45;;;28.10;99.90;;;;;;5044067;28;20041;-88
2023/08/22 10:42:52;;;;;;;3.22;2.92;;;28.30;99.90;;;;;;5043778;28;20614;-88
2023/08/22 10:45:19;;;;;;;4.97;2.30;;;28.30;99.90;;;;;;5060690;28;20055;-88
2023/08/22 10:47:49;;;;;;;5.25;3.13;;;28.20;99.90;;;;;;5060803;28;20037;-88
2023/08/22 10:50:16;;;;;;;3.83;2.50;;;28.70;99.90;;;;;;5043728;28;20074;-89
2023/08/22 10:52:41;;;;;;;4.57;2.65;;;28.70;99.90;;;;;;5038467;28;20460;-88
2023/08/22 10:55:20;;;;;;;3.55;2.40;;;28.90;99.90;;;;;;5015922;28;20130;-88
2023/08/22 10:57:46;;;;;;;2.83;2.50;;;28.70;99.90;;;;;;5040623;28;20112;-88
2023/08/22 11:00:23;;;;;;;4.03;2.60;;;28.80;99.90;;;;;;5007807;28;20048;-88
2023/08/22 11:02:56;;;;;;;3.05;2.30;;;28.60;99.90;;;;;;5034739;28;20043;-88
2023/08/22 11:05:22;;;;;;;5.70;2.67;;;28.80;99.90;;;;;;5044111;28;20577;-88
2023/08/22 11:07:49;;;;;;;4.47;2.30;;;28.70;99.90;;;;;;5015984;28;20047;-88
2023/08/22 11:10:22;;;;;;;6.35;2.40;;;28.70;99.90;;;;;;5027853;28;20133;-88
2023/08/22 11:12:49;;;;;;;2.50;2.10;;;28.90;99.90;;;;;;5019254;28;20516;-88
2023/08/22 11:15:17;;;;;;;4.80;2.55;;;28.70;99.90;;;;;;5033973;28;20037;-88
2023/08/22 11:17:45;;;;;;;4.50;2.65;;;28.80;99.90;;;;;;5013370;28;20577;-88
2023/08/22 11:20:16;;;;;;;2.67;2.10;;;29.30;99.90;;;;;;5035932;28;20040;-88
2023/08/22 11:22:45;;;;;;;4.97;2.20;;;29.00;99.90;;;;;;5066116;28;20500;-89
2023/08/22 11:25:22;;;;;;;4.38;2.25;;;29.10;99.90;;;;;;5032396;28;20067;-88
2023/08/22 11:27:48;;;;;;;3.80;2.20;;;29.40;99.90;;;;;;5040671;28;20044;-88
2023/08/22 11:30:13;;;;;;;4.32;2.20;;;29.30;99.90;;;;;;5007744;28;20488;-88
2023/08/22 11:32:40;;;;;;;4.70;2.75;;;29.40;99.90;;;;;;5036660;28;20058;-89
2023/08/22 11:35:10;;;;;;;3.45;2.22;;;29.60;91.10;;;;;;5031829;28;20037;-88
2023/08/22 11:37:38;;;;;;;3.85;2.40;;;29.40;4.70;;;;;;5040378;28;20040;-89
2023/08/22 11:40:05;;;;;;;3.42;1.88;;;29.30;1.00;;;;;;5039912;28;20123;-90
2023/08/22 11:42:33;;;;;;;2.47;2.28;;;28.80;1.00;;;;;;5040384;28;20037;-89
2023/08/22 11:45:06;;;;;;;3.20;2.60;;;28.80;1.00;;;;;;5040273;28;20086;-88
2023/08/22 11:47:40;;;;;;;2.88;2.20;;;29.10;22.10;;;;;;5031887;28;20044;-88
2023/08/22 11:50:06;;;;;;;2.50;1.85;;;29.30;1.00;;;;;;5040105;28;20040;-89
2023/08/22 11:52:32;;;;;;;2.22;1.67;;;29.00;1.00;;;;;;5039999;28;20132;-89
2023/08/22 11:55:05;;;;;;;2.63;1.80;;;29.40;1.00;;;;;;5039252;28;20051;-88
2023/08/22 11:57:33;;;;;;;4.03;2.28;;;29.70;99.90;;;;;;5045680;28;20043;-88
2023/08/22 12:00:04;;;;;;;4.30;2.03;;;29.10;1.00;;;;;;5063959;28;20036;-88
2023/08/22 12:02:30;;;;;;;2.22;1.60;;;29.40;99.90;;;;;;5038769;28;20071;-88
2023/08/22 12:04:56;;;;;;;2.85;1.85;;;29.20;1.00;;;;;;5014446;28;20076;-89
2023/08/22 12:07:22;;;;;;;3.35;1.98;;;29.50;99.90;;;;;;5065885;28;20036;-89
2023/08/22 12:09:58;;;;;;;2.42;1.63;;;29.40;99.90;;;;;;5041003;28;20400;-89
2023/08/22 12:12:24;;;;;;;2.13;1.40;;;29.30;99.90;;;;;;5051024;28;20036;-88
2023/08/22 12:14:50;;;;;;;3.47;1.60;;;28.00;99.90;;;;;;5038960;28;20040;-88
2023/08/22 12:17:16;;;;;;;1.77;1.13;;;29.20;99.90;;;;;;5055809;28;20039;-89
2023/08/22 12:19:45;;;;;;;2.00;1.38;;;29.40;1.00;;;;;;5021775;28;20048;-87
2023/08/22 12:22:11;;;;;;;2.72;1.13;;;29.60;99.90;;;;;;5022249;28;20567;-89
2023/08/22 12:24:37;;;;;;;1.98;1.25;;;29.40;28.80;;;;;;5020509;28;20052;-88
2023/08/22 12:27:03;;;;;;;2.55;1.10;;;29.60;99.90;;;;;;5050167;28;20412;-90
2023/08/22 12:29:28;;;;;;;2.38;1.10;;;29.50;1.00;;;;;;5035102;28;20074;-90
2023/08/22 12:31:54;;;;;;;1.63;1.00;;;29.60;1.00;;;;;;5059056;28;20040;-88
2023/08/22 12:34:20;;;;;;;2.53;1.10;;;29.70;15.70;;;;;;5012135;28;20500;-89
2023/08/22 12:36:45;;;;;;;1.83;1.40;;;29.80;99.90;;;;;;5022803;28;20174;-90
2023/08/22 12:39:12;;;;;;;2.63;1.50;;;29.80;99.90;;;;;;5039828;28;20093;-89
2023/08/22 12:41:40;;;;;;;3.95;1.25;;;29.70;1.00;;;;;;5041081;28;20083;-89